Thayer, Indiana
Current Conditions -  °F | °C
As of 4:35 PM on Tuesday 21 Oct 2014 (Local Time) from KRZL Reporting Station
Overcast Overcast  
Wind Chill: 52°   Ceiling: 3800
Heat Index: 52°   Visibility: 10mi
Dew Point: 43°   Wind: 14mph
Humidity: 71%   Direction: 360°N
Pressure: 30.16"   Gusts: 17mph
Location:  41.17°N, 87.33°W
Report Text: KRZL 212135Z AUTO 36012G15KT 10SM OVC038 11/06 A3016 RMK AO2
Loading
Personal Weather Stations






























Interactive Weather Map
Tropical Storm Tracking
New forecast layout! Learn more

10-Day Weather Forecast

Advertisements
Track Severe Weather on mobile